createdAt,value
2024-02-13T00:05:11.206Z,13.55
2024-02-13T00:10:33.118Z,14.93
2024-02-13T00:15:54.579Z,16.17
2024-02-13T00:21:16.033Z,18.77
2024-02-13T00:26:37.656Z,13.48
2024-02-13T00:31:59.225Z,21.38
2024-02-13T00:37:20.720Z,17.85
2024-02-13T00:42:41.868Z,18.02
2024-02-13T00:48:03.448Z,16.10
2024-02-13T00:53:25.130Z,21.42
2024-02-13T00:58:49.884Z,16.50
2024-02-13T01:04:12.178Z,21.20
2024-02-13T01:09:33.576Z,28.80
2024-02-13T01:14:55.067Z,17.75
2024-02-13T01:20:16.643Z,19.13
2024-02-13T01:25:38.277Z,20.40
2024-02-13T01:30:59.904Z,19.77
2024-02-13T01:36:21.437Z,21.73
2024-02-13T01:41:42.831Z,18.63
2024-02-13T01:47:05.175Z,19.13
2024-02-13T01:52:26.681Z,22.80
2024-02-13T01:57:50.286Z,24.48
2024-02-13T02:03:14.436Z,20.42
2024-02-13T02:08:36.205Z,22.77
2024-02-13T02:13:58.886Z,27.25
2024-02-13T02:19:20.525Z,27.25
2024-02-13T02:24:41.963Z,26.90
2024-02-13T02:30:03.285Z,25.80
2024-02-13T02:35:24.944Z,29.55
2024-02-13T02:40:46.534Z,39.40
2024-02-13T02:46:08.165Z,25.95
2024-02-13T02:51:29.409Z,40.55
2024-02-13T02:56:50.828Z,35.15
2024-02-13T03:02:12.548Z,38.25
2024-02-13T03:07:34.168Z,34.90
2024-02-13T03:12:55.630Z,35.13
2024-02-13T03:18:17.622Z,37.22
2024-02-13T03:23:38.982Z,36.03
2024-02-13T03:29:00.289Z,32.45
2024-02-13T03:34:21.866Z,35.33
2024-02-13T03:39:43.132Z,31.25
2024-02-13T03:45:04.697Z,30.58
2024-02-13T03:50:26.349Z,38.55
2024-02-13T03:55:47.852Z,33.75
2024-02-13T04:01:09.146Z,40.38
2024-02-13T04:06:31.167Z,33.25
2024-02-13T04:11:52.512Z,41.85
2024-02-13T04:17:14.158Z,36.03
2024-02-13T04:22:35.646Z,39.17
2024-02-13T04:27:56.962Z,41.88
2024-02-13T04:33:18.340Z,42.47
2024-02-13T04:38:39.918Z,41.83
2024-02-13T04:44:01.369Z,41.28
2024-02-13T04:49:23.709Z,41.20
2024-02-13T04:54:45.280Z,42.83
2024-02-13T05:00:07.936Z,43.67
2024-02-13T05:05:29.441Z,44.92
2024-02-13T05:10:50.654Z,43.90
2024-02-13T05:16:12.025Z,48.90
2024-02-13T05:21:33.690Z,44.80
2024-02-13T05:26:55.136Z,46.30
2024-02-13T05:32:16.641Z,49.83
2024-02-13T05:37:38.101Z,54.70
2024-02-13T05:42:59.354Z,52.78
2024-02-13T05:48:20.742Z,59.55
2024-02-13T05:53:42.219Z,51.58
2024-02-13T05:59:03.728Z,53.15
2024-02-13T06:04:24.966Z,56.03
2024-02-13T06:09:46.502Z,61.03
2024-02-13T06:15:09.899Z,53.80
2024-02-13T06:20:31.183Z,59.75
2024-02-13T06:25:52.447Z,56.00
2024-02-13T06:31:13.934Z,61.22
2024-02-13T06:36:35.468Z,58.28
2024-02-13T06:41:56.711Z,60.60
2024-02-13T06:47:18.355Z,60.10
2024-02-13T06:52:41.395Z,59.63
2024-02-13T06:58:02.608Z,54.30
2024-02-13T07:03:23.894Z,51.85
2024-02-13T07:08:45.397Z,59.65
2024-02-13T07:14:07.171Z,49.10
2024-02-13T07:19:28.677Z,47.15
2024-02-13T07:24:49.879Z,50.05
2024-02-13T07:30:12.109Z,51.75
2024-02-13T07:35:33.711Z,46.88
2024-02-13T07:40:55.626Z,46.83
2024-02-13T07:46:17.000Z,45.03
2024-02-13T07:51:38.169Z,44.08
2024-02-13T07:56:59.726Z,41.80
2024-02-13T08:02:21.270Z,40.50
2024-02-13T08:07:42.735Z,39.40
2024-02-13T08:13:04.563Z,39.70
2024-02-13T08:18:26.040Z,41.65
2024-02-13T08:23:47.753Z,40.30
2024-02-13T08:29:09.246Z,32.08
2024-02-13T08:34:30.537Z,32.90
2024-02-13T08:39:52.112Z,32.45
2024-02-13T08:45:13.291Z,31.65
2024-02-13T08:50:34.631Z,32.45
2024-02-13T08:55:56.045Z,26.60
2024-02-13T09:01:21.642Z,28.40
2024-02-13T09:06:43.269Z,24.60
2024-02-13T09:12:05.376Z,25.35
2024-02-13T09:17:27.130Z,23.67
2024-02-13T09:22:49.216Z,18.08
2024-02-13T09:28:10.955Z,20.98
2024-02-13T09:33:32.600Z,20.52
2024-02-13T09:38:54.417Z,22.45
2024-02-13T09:44:15.809Z,19.02
2024-02-13T09:49:42.361Z,15.70
2024-02-13T09:55:07.335Z,15.68
2024-02-13T10:00:30.781Z,22.40
2024-02-13T10:05:52.518Z,15.80
2024-02-13T10:11:14.714Z,17.55
2024-02-13T10:16:36.381Z,14.88
2024-02-13T10:22:07.474Z,16.55
2024-02-13T10:27:28.705Z,15.13
2024-02-13T10:33:24.129Z,16.70
2024-02-13T10:38:55.942Z,18.88
2024-02-13T10:44:21.263Z,16.15
2024-02-13T10:49:53.489Z,15.45
2024-02-13T10:55:17.056Z,14.27
2024-02-13T11:00:38.403Z,14.40
2024-02-13T11:05:59.966Z,13.80
2024-02-13T11:11:25.328Z,11.57
2024-02-13T11:17:02.421Z,12.70
2024-02-13T11:22:36.027Z,15.27
2024-02-13T11:28:02.142Z,12.35
2024-02-13T11:33:23.885Z,12.32
2024-02-13T11:38:45.268Z,10.30
2024-02-13T11:44:08.024Z,10.63
2024-02-13T11:49:29.740Z,12.02
2024-02-13T11:54:52.562Z,7.75
2024-02-13T12:00:15.121Z,9.50
2024-02-13T12:05:36.676Z,12.35
2024-02-13T12:10:58.711Z,13.90
2024-02-13T12:16:20.181Z,11.10
2024-02-13T12:21:43.448Z,11.93
2024-02-13T12:27:05.261Z,7.10
2024-02-13T12:32:29.044Z,7.13
2024-02-13T12:37:52.101Z,9.70
2024-02-13T12:43:13.434Z,9.13
2024-02-13T12:48:39.447Z,9.30
2024-02-13T12:54:04.107Z,5.97
2024-02-13T12:59:26.162Z,9.75
2024-02-13T13:04:47.559Z,8.88
2024-02-13T13:10:09.858Z,7.35
2024-02-13T13:15:31.401Z,10.85
2024-02-13T13:20:53.383Z,7.75
2024-02-13T13:26:14.994Z,6.93
2024-02-13T13:31:38.932Z,4.57
2024-02-13T13:37:00.211Z,5.05
2024-02-13T13:42:22.015Z,6.55
2024-02-13T13:47:45.061Z,5.78
2024-02-13T13:53:06.971Z,9.70
2024-02-13T13:58:28.600Z,7.88
2024-02-13T14:03:50.079Z,8.23
2024-02-13T14:09:11.671Z,6.18
2024-02-13T14:14:34.160Z,8.82
2024-02-13T14:19:55.414Z,8.32
2024-02-13T14:25:17.384Z,10.70
2024-02-13T14:30:38.876Z,7.57
2024-02-13T14:36:00.205Z,6.93
2024-02-13T14:41:21.825Z,7.97
2024-02-13T14:46:43.347Z,8.15
2024-02-13T14:52:05.760Z,6.63
2024-02-13T14:57:27.084Z,5.22
2024-02-13T15:02:48.990Z,9.73
2024-02-13T15:08:10.137Z,6.45
2024-02-13T15:13:31.404Z,8.55
2024-02-13T15:18:52.604Z,8.57
2024-02-13T15:24:14.187Z,6.00
2024-02-13T15:29:35.802Z,6.05
2024-02-13T15:34:57.259Z,8.30
2024-02-13T15:40:18.940Z,5.30
2024-02-13T15:45:40.044Z,6.90
2024-02-13T15:51:01.796Z,9.05
2024-02-13T15:56:23.341Z,3.55
2024-02-13T16:01:44.873Z,6.70
2024-02-13T16:07:07.664Z,7.88
2024-02-13T16:12:29.070Z,8.48
2024-02-13T16:17:50.563Z,6.47
2024-02-13T16:23:12.116Z,6.07
2024-02-13T16:28:33.558Z,8.18
2024-02-13T16:33:55.105Z,7.15
2024-02-13T16:39:17.844Z,8.32
2024-02-13T16:44:39.584Z,8.85
2024-02-13T16:50:00.881Z,6.68
2024-02-13T16:55:22.614Z,10.45
2024-02-13T17:00:44.075Z,7.55
2024-02-13T17:06:05.968Z,4.70
2024-02-13T17:11:28.316Z,7.05
2024-02-13T17:16:49.689Z,7.65
2024-02-13T17:22:11.189Z,6.50
2024-02-13T17:27:32.401Z,5.20
2024-02-13T17:32:53.668Z,4.05
2024-02-13T17:38:15.354Z,6.95
2024-02-13T17:43:36.795Z,6.57
2024-02-13T17:48:58.457Z,5.07
2024-02-13T17:54:20.032Z,3.30
2024-02-13T17:59:41.438Z,4.53
2024-02-13T18:05:03.130Z,3.50
2024-02-13T18:10:24.657Z,7.40
2024-02-13T18:15:46.504Z,6.70
2024-02-13T18:21:08.141Z,8.73
2024-02-13T18:26:30.029Z,9.35
2024-02-13T18:31:51.262Z,4.85
2024-02-13T18:37:12.529Z,6.85
2024-02-13T18:42:34.366Z,5.38
2024-02-13T18:47:55.819Z,9.82
2024-02-13T18:53:17.662Z,9.25
2024-02-13T18:58:39.150Z,3.30
2024-02-13T19:04:00.676Z,9.20
2024-02-13T19:09:23.088Z,5.47
2024-02-13T19:14:45.547Z,6.20
2024-02-13T19:20:07.969Z,7.32
2024-02-13T19:25:29.486Z,7.00
2024-02-13T19:30:50.827Z,5.00
2024-02-13T19:36:12.239Z,5.70
2024-02-13T19:41:33.607Z,5.00
2024-02-13T19:46:55.192Z,5.20
2024-02-13T19:52:16.381Z,6.10
2024-02-13T19:57:37.747Z,6.22
2024-02-13T20:02:59.171Z,7.30
2024-02-13T20:08:20.835Z,5.47
2024-02-13T20:13:42.348Z,5.65
2024-02-13T20:19:04.038Z,3.22
2024-02-13T20:24:25.785Z,8.43
2024-02-13T20:29:46.880Z,4.95
2024-02-13T20:35:09.159Z,6.22
2024-02-13T20:40:31.068Z,5.35
2024-02-13T20:45:52.582Z,5.90
2024-02-13T20:51:13.825Z,5.75
2024-02-13T20:56:35.215Z,5.80
2024-02-13T21:01:57.176Z,3.92
2024-02-13T21:07:18.592Z,5.40
2024-02-13T21:12:40.149Z,4.72
2024-02-13T21:18:01.869Z,9.25
2024-02-13T21:23:23.506Z,4.28
2024-02-13T21:28:45.116Z,7.18
2024-02-13T21:34:06.505Z,3.97
2024-02-13T21:39:27.915Z,4.43
2024-02-13T21:44:49.017Z,4.95
2024-02-13T21:50:11.348Z,4.90
2024-02-13T21:55:33.017Z,4.85
2024-02-13T22:00:54.306Z,7.72
2024-02-13T22:06:15.946Z,7.88
2024-02-13T22:11:37.464Z,4.72
2024-02-13T22:16:58.930Z,6.03
2024-02-13T22:22:20.121Z,5.43
2024-02-13T22:27:41.567Z,8.02
2024-02-13T22:33:03.147Z,8.93
2024-02-13T22:38:24.420Z,7.82
2024-02-13T22:43:45.930Z,6.55
2024-02-13T22:49:07.856Z,9.45
2024-02-13T22:54:29.196Z,7.72
2024-02-13T22:59:50.534Z,6.47
2024-02-13T23:05:12.017Z,9.60
2024-02-13T23:10:33.841Z,7.07
2024-02-13T23:15:55.141Z,8.38
2024-02-13T23:21:16.958Z,9.90
2024-02-13T23:26:39.976Z,10.88
2024-02-13T23:32:01.445Z,8.88
2024-02-13T23:37:22.968Z,11.80
2024-02-13T23:42:49.482Z,9.45
2024-02-13T23:48:10.930Z,9.32
2024-02-13T23:53:34.665Z,12.50
2024-02-13T23:58:56.254Z,16.17
